createdAt,value
2019-05-18T00:00:02.084Z,8.7125
2019-05-18T00:00:11.801Z,8.7125
2019-05-18T00:00:21.557Z,8.7326
2019-05-18T00:00:33.397Z,8.7427
2019-05-18T00:00:43.117Z,8.7427
2019-05-18T00:00:52.943Z,8.7427
2019-05-18T00:01:02.593Z,8.7427
2019-05-18T00:01:13.414Z,8.7427
2019-05-18T00:01:23.242Z,8.7427
2019-05-18T00:01:32.914Z,8.7326
2019-05-18T00:01:42.580Z,8.7729
2019-05-18T00:01:52.244Z,8.7628
2019-05-18T00:02:05.259Z,8.7628
2019-05-18T00:02:12.134Z,8.7628
2019-05-18T00:02:21.783Z,8.7427
2019-05-18T00:02:31.421Z,8.7125
2019-05-18T00:02:43.246Z,8.7729
2019-05-18T00:02:52.893Z,8.7628
2019-05-18T00:03:02.624Z,8.7427
2019-05-18T00:03:12.294Z,8.7427
2019-05-18T00:03:21.940Z,8.7628
2019-05-18T00:03:31.603Z,8.7628
2019-05-18T00:03:42.270Z,8.7729
2019-05-18T00:03:51.921Z,8.8132
2019-05-18T00:04:01.595Z,8.8434
2019-05-18T00:04:13.406Z,8.8635
2019-05-18T00:04:23.070Z,8.8635
2019-05-18T00:04:32.780Z,8.8937
2019-05-18T00:04:43.413Z,8.8937
2019-05-18T00:04:53.085Z,8.8937
2019-05-18T00:05:02.752Z,8.9139
2019-05-18T00:05:11.475Z,8.8333
2019-05-18T00:05:23.353Z,8.9139
2019-05-18T00:05:33.268Z,8.9240
2019-05-18T00:05:42.973Z,8.9139
2019-05-18T00:05:52.665Z,8.9240
2019-05-18T00:06:03.312Z,8.9139
2019-05-18T00:06:12.010Z,8.9542
2019-05-18T00:06:21.671Z,8.9139
2019-05-18T00:06:33.490Z,8.8937
2019-05-18T00:06:43.161Z,8.8736
2019-05-18T00:06:52.837Z,8.8937
2019-05-18T00:07:02.527Z,8.8736
2019-05-18T00:07:12.190Z,8.8736
2019-05-18T00:07:21.833Z,8.8635
2019-05-18T00:07:31.504Z,8.8635
2019-05-18T00:07:43.370Z,8.8635
2019-05-18T00:07:53.031Z,8.8434
2019-05-18T00:08:02.717Z,8.8434
2019-05-18T00:08:11.411Z,8.8434
2019-05-18T00:08:23.261Z,8.8434
2019-05-18T00:08:33.005Z,8.8434
2019-05-18T00:08:42.975Z,8.8434
2019-05-18T00:08:51.688Z,8.8434
2019-05-18T00:09:03.501Z,8.8635
2019-05-18T00:09:12.004Z,8.8635
2019-05-18T00:09:21.750Z,8.8736
2019-05-18T00:09:31.474Z,8.8937
2019-05-18T00:09:44.398Z,8.8937
2019-05-18T00:09:51.596Z,8.9139
2019-05-18T00:10:03.409Z,8.9139
2019-05-18T00:10:12.049Z,8.9441
2019-05-18T00:10:21.696Z,8.9441
2019-05-18T00:10:31.356Z,8.9139
2019-05-18T00:10:43.168Z,8.9441
2019-05-18T00:10:52.834Z,8.9240
2019-05-18T00:11:02.471Z,8.9240
2019-05-18T00:11:12.117Z,8.9240
2019-05-18T00:11:22.756Z,8.9240
2019-05-18T00:11:32.428Z,8.9240
2019-05-18T00:11:42.071Z,8.9441
2019-05-18T00:11:51.746Z,8.9240
2019-05-18T00:12:01.467Z,8.9139
2019-05-18T00:12:13.288Z,8.9240
2019-05-18T00:12:21.938Z,8.9441
2019-05-18T00:12:31.616Z,8.9240
2019-05-18T00:12:43.429Z,8.9441
2019-05-18T00:12:51.936Z,8.9441
2019-05-18T00:13:01.629Z,8.9441
2019-05-18T00:13:12.281Z,8.9441
2019-05-18T00:13:21.939Z,8.9240
2019-05-18T00:13:31.602Z,8.9240
2019-05-18T00:13:43.410Z,8.9240
2019-05-18T00:13:53.067Z,8.9240
2019-05-18T00:14:02.706Z,8.9441
2019-05-18T00:14:12.379Z,8.9542
2019-05-18T00:14:22.055Z,8.9542
2019-05-18T00:14:31.741Z,8.9844
2019-05-18T00:14:41.455Z,8.9642
2019-05-18T00:14:53.266Z,8.9844
2019-05-18T00:15:02.927Z,8.9944
2019-05-18T00:15:12.617Z,9.0146
2019-05-18T00:15:34.147Z,8.9944
2019-05-18T00:15:41.636Z,9.0146
2019-05-18T00:15:53.480Z,8.9944
2019-05-18T00:16:03.154Z,9.0146
2019-05-18T00:16:12.826Z,8.9944
2019-05-18T00:16:22.570Z,8.9844
2019-05-18T00:16:33.230Z,8.9944
2019-05-18T00:16:42.889Z,8.9844
2019-05-18T00:16:52.546Z,8.9844
2019-05-18T00:17:03.290Z,8.9944
2019-05-18T00:17:24.965Z,8.9944
2019-05-18T00:17:25.290Z,8.9642
2019-05-18T00:17:31.500Z,8.9844
2019-05-18T00:17:43.369Z,8.9844
2019-05-18T00:18:01.701Z,9.0247
2019-05-18T00:18:11.398Z,9.0549
2019-05-18T00:18:22.044Z,9.0549
2019-05-18T00:18:32.689Z,9.0750
2019-05-18T00:18:42.354Z,9.0952
2019-05-18T00:18:52.989Z,9.0952
2019-05-18T00:19:02.633Z,9.0750
2019-05-18T00:19:12.316Z,9.0750
2019-05-18T00:19:21.999Z,9.0952
2019-05-18T00:19:31.979Z,9.1052
2019-05-18T00:19:41.629Z,9.0750
2019-05-18T00:19:52.533Z,9.0549
2019-05-18T00:20:02.200Z,9.0549
2019-05-18T00:20:22.729Z,9.0448
2019-05-18T00:20:32.422Z,9.0549
2019-05-18T00:20:43.117Z,9.0448
2019-05-18T00:20:52.995Z,9.0448
2019-05-18T00:21:01.705Z,9.0146
2019-05-18T00:21:12.438Z,9.0247
2019-05-18T00:21:31.987Z,9.0247
2019-05-18T00:21:41.923Z,9.0146
2019-05-18T00:21:52.740Z,9.0247
2019-05-18T00:22:02.454Z,9.0146
2019-05-18T00:22:21.824Z,9.0146
2019-05-18T00:22:31.539Z,8.9944
2019-05-18T00:22:43.360Z,8.9844
2019-05-18T00:22:53.067Z,8.9944
2019-05-18T00:23:02.745Z,8.9944
2019-05-18T00:23:12.495Z,9.0146
2019-05-18T00:23:33.124Z,8.9944
2019-05-18T00:23:42.823Z,8.9944
2019-05-18T00:23:52.539Z,8.9944
2019-05-18T00:24:02.203Z,8.9944
2019-05-18T00:24:11.923Z,8.9944
2019-05-18T00:24:21.619Z,8.9844
2019-05-18T00:24:33.482Z,8.9944
2019-05-18T00:24:43.152Z,8.9944
2019-05-18T00:24:52.909Z,8.9944
2019-05-18T00:25:01.440Z,9.0448
2019-05-18T00:25:13.342Z,9.0549
2019-05-18T00:25:23.050Z,9.0750
2019-05-18T00:25:32.709Z,9.0750
2019-05-18T00:25:42.399Z,9.1052
2019-05-18T00:25:52.069Z,9.0952
2019-05-18T00:26:01.740Z,9.1254
2019-05-18T00:26:11.559Z,9.1354
2019-05-18T00:26:21.561Z,9.1354
2019-05-18T00:26:33.470Z,9.1656
2019-05-18T00:26:41.960Z,9.1757
2019-05-18T00:26:51.659Z,9.1959
2019-05-18T00:27:03.511Z,9.2059
2019-05-18T00:27:13.219Z,9.2361
2019-05-18T00:27:32.172Z,9.2563
2019-05-18T00:27:41.841Z,9.3066
2019-05-18T00:27:51.508Z,9.3167
2019-05-18T00:28:03.302Z,9.3268
2019-05-18T00:28:12.962Z,9.3469
2019-05-18T00:28:22.658Z,9.3570
2019-05-18T00:28:33.323Z,9.3771
2019-05-18T00:28:42.982Z,9.3570
2019-05-18T00:28:52.648Z,9.3771
2019-05-18T00:29:02.338Z,9.3872
2019-05-18T00:29:12.065Z,9.3771
2019-05-18T00:29:21.758Z,9.3872
2019-05-18T00:29:31.432Z,9.3872
2019-05-18T00:29:43.258Z,9.3872
2019-05-18T00:29:51.969Z,9.3872
2019-05-18T00:30:01.632Z,9.3771
2019-05-18T00:30:11.349Z,9.3872
2019-05-18T00:30:23.478Z,9.3771
2019-05-18T00:30:33.138Z,9.3771
2019-05-18T00:30:42.860Z,9.3570
2019-05-18T00:30:52.502Z,9.3771
2019-05-18T00:31:02.207Z,9.3570
2019-05-18T00:31:11.868Z,9.3469
2019-05-18T00:31:22.051Z,9.3469
2019-05-18T00:31:33.007Z,9.3469
2019-05-18T00:31:42.689Z,9.3469
2019-05-18T00:31:52.346Z,9.3268
2019-05-18T00:32:02.358Z,9.3268
2019-05-18T00:32:12.117Z,9.3167
2019-05-18T00:32:22.962Z,9.3066
2019-05-18T00:32:32.642Z,9.3066
2019-05-18T00:32:42.328Z,9.3066
2019-05-18T00:32:53.111Z,9.3066
2019-05-18T00:33:03.433Z,9.3268
2019-05-18T00:33:13.080Z,9.3469
2019-05-18T00:33:22.712Z,9.3268
2019-05-18T00:33:33.408Z,9.3570
2019-05-18T00:33:43.087Z,9.3872
2019-05-18T00:33:52.724Z,9.4174
2019-05-18T00:34:02.430Z,9.4275
2019-05-18T00:34:12.057Z,9.4275
2019-05-18T00:34:21.722Z,9.4778
2019-05-18T00:34:32.561Z,9.4980
2019-05-18T00:34:42.242Z,9.4980
2019-05-18T00:34:54.683Z,9.5081
2019-05-18T00:35:02.197Z,9.5282
2019-05-18T00:35:11.876Z,9.5383
2019-05-18T00:35:21.533Z,9.5282
2019-05-18T00:35:33.384Z,9.5282
2019-05-18T00:35:43.110Z,9.5282
2019-05-18T00:35:53.790Z,9.5081
2019-05-18T00:36:03.451Z,9.5081
2019-05-18T00:36:13.142Z,9.5081
2019-05-18T00:36:22.820Z,9.5081
2019-05-18T00:36:31.508Z,9.5081
2019-05-18T00:36:44.633Z,9.4980
2019-05-18T00:36:51.650Z,9.4980
2019-05-18T00:37:02.467Z,9.4778
2019-05-18T00:37:12.226Z,9.5081
2019-05-18T00:37:21.856Z,9.4778
2019-05-18T00:37:32.644Z,9.4778
2019-05-18T00:37:42.319Z,9.4778
2019-05-18T00:37:51.986Z,9.4678
2019-05-18T00:38:01.683Z,9.4577
2019-05-18T00:38:13.508Z,9.4577
2019-05-18T00:38:23.158Z,9.4577
2019-05-18T00:38:32.795Z,9.4275
2019-05-18T00:38:42.485Z,9.4174
2019-05-18T00:38:52.156Z,9.4174
2019-05-18T00:39:01.820Z,9.3973
2019-05-18T00:39:11.520Z,9.3872
2019-05-18T00:39:23.389Z,9.3771
2019-05-18T00:39:31.883Z,9.3771
2019-05-18T00:39:42.556Z,9.3771
2019-05-18T00:39:52.239Z,9.3771
2019-05-18T00:40:03.138Z,9.3771
2019-05-18T00:40:12.887Z,9.3469
2019-05-18T00:40:22.579Z,9.3268
2019-05-18T00:40:32.246Z,9.3268
2019-05-18T00:40:41.917Z,9.3167
2019-05-18T00:40:51.576Z,9.3167
2019-05-18T00:41:02.430Z,9.3066
2019-05-18T00:41:12.069Z,9.3167
2019-05-18T00:41:21.834Z,9.3066
2019-05-18T00:41:31.776Z,9.3066
2019-05-18T00:41:41.450Z,9.3066
2019-05-18T00:41:54.310Z,9.2865
2019-05-18T00:42:01.820Z,9.3066
2019-05-18T00:42:11.577Z,9.2865
2019-05-18T00:42:23.416Z,9.2865
2019-05-18T00:42:33.095Z,9.2865
2019-05-18T00:42:42.780Z,9.2865
2019-05-18T00:42:52.426Z,9.2865
2019-05-18T00:43:02.106Z,9.2865
2019-05-18T00:43:11.756Z,9.2865
2019-05-18T00:43:21.419Z,9.2865
2019-05-18T00:43:33.236Z,9.2865
2019-05-18T00:43:42.896Z,9.2865
2019-05-18T00:43:52.561Z,9.2865
2019-05-18T00:44:02.221Z,9.2764
2019-05-18T00:44:11.951Z,9.2764
2019-05-18T00:44:22.618Z,9.2865
2019-05-18T00:44:32.316Z,9.2865
2019-05-18T00:44:43.090Z,9.2865
2019-05-18T00:44:52.790Z,9.3066
2019-05-18T00:45:02.457Z,9.3066
2019-05-18T00:45:13.116Z,9.2865
2019-05-18T00:45:22.790Z,9.3066
2019-05-18T00:45:32.458Z,9.3268
2019-05-18T00:45:42.101Z,9.3268
2019-05-18T00:45:51.759Z,9.3268
2019-05-18T00:46:01.447Z,9.3469
2019-05-18T00:46:13.279Z,9.3570
2019-05-18T00:46:22.966Z,9.3771
2019-05-18T00:46:32.636Z,9.3771
2019-05-18T00:46:42.359Z,9.3872
2019-05-18T00:46:52.057Z,9.3973
2019-05-18T00:47:01.747Z,9.4174
2019-05-18T00:47:11.460Z,9.4174
2019-05-18T00:47:40.885Z,9.4174
2019-05-18T00:47:42.918Z,9.3973
2019-05-18T00:47:52.586Z,9.4174
2019-05-18T00:48:02.280Z,9.4174
2019-05-18T00:48:12.987Z,9.4174
2019-05-18T00:48:22.653Z,9.4174
2019-05-18T00:48:32.316Z,9.3872
2019-05-18T00:48:41.968Z,9.4174
2019-05-18T00:48:51.680Z,9.4174
2019-05-18T00:49:01.347Z,9.3872
2019-05-18T00:49:21.878Z,9.3771
2019-05-18T00:49:32.637Z,9.3570
2019-05-18T00:49:42.287Z,9.3469
2019-05-18T00:49:51.981Z,9.3469
2019-05-18T00:50:01.682Z,9.3469
2019-05-18T00:50:11.390Z,9.3570
2019-05-18T00:50:23.216Z,9.3570
2019-05-18T00:50:41.576Z,9.3570
2019-05-18T00:50:53.399Z,9.3469
2019-05-18T00:51:03.065Z,9.3469
2019-05-18T00:51:12.795Z,9.3469
2019-05-18T00:51:23.593Z,9.3469
2019-05-18T00:51:32.487Z,9.3570
2019-05-18T00:51:42.145Z,9.3268
2019-05-18T00:51:51.833Z,9.3268
2019-05-18T00:52:01.499Z,9.3268
2019-05-18T00:52:41.638Z,9.3268
2019-05-18T00:53:03.082Z,9.3167
2019-05-18T00:53:13.761Z,9.3268
2019-05-18T00:53:32.125Z,9.3268
2019-05-18T00:53:41.811Z,9.3268
2019-05-18T00:53:51.529Z,9.3268
2019-05-18T00:54:12.116Z,9.3268
2019-05-18T00:54:21.765Z,9.3469
2019-05-18T00:54:31.455Z,9.3268
2019-05-18T00:54:43.317Z,9.3268
2019-05-18T00:54:52.989Z,9.3469
2019-05-18T00:55:02.988Z,9.3469
2019-05-18T00:55:12.674Z,9.3469
2019-05-18T00:55:22.366Z,9.3268
2019-05-18T00:55:32.057Z,9.3268
2019-05-18T00:55:41.685Z,9.3268
2019-05-18T00:55:51.397Z,9.3167
2019-05-18T00:56:03.257Z,9.3167
2019-05-18T00:56:11.745Z,9.3268
2019-05-18T00:56:22.629Z,9.3167
2019-05-18T00:56:32.319Z,9.3066
2019-05-18T00:56:42.020Z,9.3066
2019-05-18T00:57:02.357Z,9.2361
2019-05-18T00:57:12.211Z,9.3066
2019-05-18T00:57:23.411Z,9.3066
2019-05-18T00:57:33.171Z,9.3066
2019-05-18T00:57:41.646Z,9.3066
2019-05-18T00:58:02.159Z,9.3066
2019-05-18T00:58:11.899Z,9.3167
2019-05-18T00:58:21.569Z,9.3268
2019-05-18T00:58:33.409Z,9.3268
2019-05-18T00:58:43.096Z,9.3268
2019-05-18T00:59:01.700Z,9.3268
2019-05-18T00:59:15.883Z,9.3268
2019-05-18T00:59:22.139Z,9.3469
2019-05-18T00:59:31.801Z,9.3570
2019-05-18T00:59:41.479Z,9.3570
2019-05-18T01:00:01.938Z,9.3771
2019-05-18T01:00:12.591Z,9.3771
2019-05-18T01:00:22.257Z,9.3771
2019-05-18T01:00:31.943Z,9.3771
2019-05-18T01:00:41.563Z,9.3872
2019-05-18T01:01:02.348Z,9.3973
2019-05-18T01:01:11.985Z,9.3973
2019-05-18T01:01:21.685Z,9.3973
2019-05-18T01:01:31.381Z,9.3973
2019-05-18T01:01:43.268Z,9.4275
2019-05-18T01:02:01.632Z,9.4174
2019-05-18T01:02:12.581Z,9.3973
2019-05-18T01:02:22.334Z,9.3973
2019-05-18T01:02:32.058Z,9.3973
2019-05-18T01:02:41.712Z,9.4275
2019-05-18T01:02:51.558Z,9.4577
2019-05-18T01:03:12.111Z,9.4577
2019-05-18T01:03:21.823Z,9.4577
2019-05-18T01:03:31.536Z,9.4678
2019-05-18T01:03:43.389Z,9.4778
2019-05-18T01:04:01.793Z,9.4778
2019-05-18T01:04:11.488Z,9.4980
2019-05-18T01:04:23.421Z,9.4778
2019-05-18T01:04:33.089Z,9.4980
2019-05-18T01:04:42.751Z,9.4980
2019-05-18T01:05:03.258Z,9.4980
2019-05-18T01:05:12.940Z,9.4778
2019-05-18T01:05:22.678Z,9.4778
2019-05-18T01:05:32.381Z,9.4980
2019-05-18T01:05:44.052Z,9.5081
2019-05-18T01:05:51.564Z,9.4778
2019-05-18T01:06:03.472Z,9.4778
2019-05-18T01:06:13.151Z,9.4678
2019-05-18T01:06:22.809Z,9.4678
2019-05-18T01:06:31.532Z,9.4577
2019-05-18T01:06:42.330Z,9.4577
2019-05-18T01:07:01.950Z,9.4275
2019-05-18T01:07:11.651Z,9.4275
2019-05-18T01:07:21.407Z,9.4275
2019-05-18T01:07:33.288Z,9.4174
2019-05-18T01:07:42.977Z,9.3973
2019-05-18T01:08:01.388Z,9.3973
2019-05-18T01:08:13.250Z,9.3973
2019-05-18T01:08:21.767Z,9.3872
2019-05-18T01:08:32.488Z,9.3872
2019-05-18T01:08:42.152Z,9.3771
2019-05-18T01:08:51.881Z,9.3771
2019-05-18T01:09:01.546Z,9.3771
2019-05-18T01:09:12.397Z,9.3570
2019-05-18T01:09:22.079Z,9.3570
2019-05-18T01:09:31.838Z,9.3469
2019-05-18T01:09:41.497Z,9.3469
2019-05-18T01:10:02.068Z,9.3268
2019-05-18T01:10:11.848Z,9.3167
2019-05-18T01:10:21.511Z,9.3066
2019-05-18T01:10:33.365Z,9.3066
2019-05-18T01:10:43.027Z,9.2865
2019-05-18T01:11:01.377Z,9.2865
2019-05-18T01:11:13.241Z,9.2563
2019-05-18T01:11:22.903Z,9.2764
2019-05-18T01:11:32.580Z,9.2563
2019-05-18T01:11:42.307Z,9.2563
2019-05-18T01:12:04.911Z,9.2261
2019-05-18T01:12:11.774Z,9.2261
2019-05-18T01:12:21.453Z,9.2261
2019-05-18T01:12:33.301Z,9.2059
2019-05-18T01:12:52.678Z,9.1959
2019-05-18T01:13:02.346Z,9.1959
2019-05-18T01:13:12.033Z,9.1757
2019-05-18T01:13:21.703Z,9.1959
2019-05-18T01:13:31.384Z,9.1757
2019-05-18T01:13:43.221Z,9.1757
2019-05-18T01:13:53.001Z,9.1959
2019-05-18T01:14:02.901Z,9.1959
2019-05-18T01:14:13.571Z,9.1959
2019-05-18T01:14:23.236Z,9.1757
2019-05-18T01:14:33.151Z,9.1757
2019-05-18T01:14:41.854Z,9.1757
2019-05-18T01:14:51.533Z,9.1656
2019-05-18T01:15:03.389Z,9.1656
2019-05-18T01:15:13.096Z,9.1455
2019-05-18T01:15:22.975Z,9.1455
2019-05-18T01:15:32.618Z,9.1354
2019-05-18T01:15:51.953Z,9.1354
2019-05-18T01:16:01.646Z,9.1254
2019-05-18T01:16:11.351Z,9.1254
2019-05-18T01:16:23.309Z,9.1254
2019-05-18T01:16:33.014Z,9.1455
2019-05-18T01:16:42.651Z,9.1052
2019-05-18T01:16:52.337Z,9.0952
2019-05-18T01:17:03.048Z,9.0952
2019-05-18T01:17:12.695Z,9.0952
2019-05-18T01:17:22.395Z,9.0952
2019-05-18T01:17:33.294Z,9.0750
2019-05-18T01:17:55.102Z,9.0952
2019-05-18T01:17:57.402Z,9.0952
2019-05-18T01:18:03.890Z,9.0952
2019-05-18T01:18:12.386Z,9.0952
2019-05-18T01:18:22.022Z,9.0952
2019-05-18T01:18:31.697Z,9.0952
2019-05-18T01:18:52.025Z,9.0750
2019-05-18T01:19:02.867Z,9.0952
2019-05-18T01:19:14.315Z,9.0750
2019-05-18T01:19:21.822Z,9.0750
2019-05-18T01:19:32.668Z,9.1052
2019-05-18T01:19:42.343Z,9.0750
2019-05-18T01:19:52.051Z,9.0549
2019-05-18T01:20:01.713Z,9.0750
2019-05-18T01:20:12.361Z,9.0549
2019-05-18T01:20:22.116Z,9.0549
2019-05-18T01:20:42.571Z,9.0448
2019-05-18T01:20:53.249Z,9.0448
2019-05-18T01:21:02.932Z,9.0247
2019-05-18T01:21:11.629Z,9.0247
2019-05-18T01:21:23.478Z,9.0448
2019-05-18T01:21:41.819Z,9.0247
2019-05-18T01:21:51.510Z,9.0247
2019-05-18T01:22:03.329Z,9.0750
2019-05-18T01:22:13.014Z,9.0146
2019-05-18T01:22:22.731Z,9.0448
2019-05-18T01:22:32.382Z,9.0247
2019-05-18T01:22:42.039Z,9.0146
2019-05-18T01:22:51.719Z,9.0146
2019-05-18T01:23:01.450Z,9.0247
2019-05-18T01:23:13.309Z,9.0146
2019-05-18T01:23:23.011Z,9.0146
2019-05-18T01:23:31.498Z,9.0146
2019-05-18T01:23:55.240Z,9.0448
2019-05-18T01:24:02.912Z,9.0448
2019-05-18T01:24:12.564Z,9.0448
2019-05-18T01:24:22.222Z,9.0448
2019-05-18T01:24:31.863Z,9.0247
2019-05-18T01:24:41.522Z,9.0247
2019-05-18T01:24:53.352Z,9.0247
2019-05-18T01:25:03.027Z,9.0247
2019-05-18T01:25:12.901Z,9.0448
2019-05-18T01:25:22.555Z,9.0146
2019-05-18T01:25:32.208Z,9.0247
2019-05-18T01:25:41.886Z,8.9642
2019-05-18T01:25:51.552Z,9.0146
2019-05-18T01:26:03.397Z,9.0146
2019-05-18T01:26:12.052Z,9.0247
2019-05-18T01:26:21.774Z,9.0146
2019-05-18T01:26:31.454Z,9.0146
2019-05-18T01:26:43.377Z,9.0146
2019-05-18T01:26:53.013Z,9.0247
2019-05-18T01:27:02.705Z,9.0146
2019-05-18T01:27:12.352Z,8.9844
2019-05-18T01:27:22.041Z,9.0146
2019-05-18T01:27:32.904Z,9.0247
2019-05-18T01:27:42.787Z,9.0247
2019-05-18T01:27:51.471Z,9.0247
2019-05-18T01:28:03.358Z,9.0549
2019-05-18T01:28:13.074Z,9.0750
2019-05-18T01:28:22.764Z,9.0549
2019-05-18T01:28:33.455Z,9.0750
2019-05-18T01:28:43.116Z,9.0952
2019-05-18T01:28:52.762Z,9.0750
2019-05-18T01:29:02.440Z,9.0549
2019-05-18T01:29:12.135Z,9.0952
2019-05-18T01:29:21.809Z,9.0952
2019-05-18T01:29:43.389Z,9.1052
2019-05-18T01:29:53.031Z,9.1052
2019-05-18T01:30:03.777Z,9.1052
2019-05-18T01:30:13.445Z,9.1254
2019-05-18T01:30:23.115Z,9.1052
2019-05-18T01:30:32.805Z,9.1656
2019-05-18T01:30:42.505Z,9.0952
2019-05-18T01:30:52.172Z,9.0952
2019-05-18T01:31:01.886Z,9.0952
2019-05-18T01:31:11.642Z,9.0952
2019-05-18T01:31:22.318Z,9.1052
2019-05-18T01:31:31.995Z,9.0952
2019-05-18T01:31:41.656Z,9.1052
2019-05-18T01:31:53.462Z,9.0952
2019-05-18T01:32:03.135Z,9.1052
2019-05-18T01:32:12.813Z,9.1052
2019-05-18T01:32:22.504Z,9.1052
2019-05-18T01:32:32.143Z,9.1052
2019-05-18T01:32:42.822Z,9.1254
2019-05-18T01:32:52.495Z,9.1052
2019-05-18T01:33:02.290Z,9.1254
2019-05-18T01:33:12.019Z,9.1052
2019-05-18T01:33:23.219Z,9.0750
2019-05-18T01:33:32.194Z,9.1052
2019-05-18T01:33:41.944Z,9.1052
2019-05-18T01:33:51.616Z,9.1254
2019-05-18T01:34:03.476Z,9.1455
2019-05-18T01:34:13.155Z,9.1656
2019-05-18T01:34:22.822Z,9.1757
2019-05-18T01:34:32.596Z,9.1959
2019-05-18T01:34:43.284Z,9.2059
2019-05-18T01:34:51.961Z,9.2361
2019-05-18T01:35:01.754Z,9.2563
2019-05-18T01:35:11.393Z,9.2563
2019-05-18T01:35:23.292Z,9.2764
2019-05-18T01:35:33.032Z,9.3066
2019-05-18T01:35:42.725Z,9.3167
2019-05-18T01:35:51.372Z,9.3167
2019-05-18T01:36:03.206Z,9.3469
2019-05-18T01:36:12.905Z,9.3570
2019-05-18T01:36:21.428Z,9.3570
2019-05-18T01:36:33.264Z,9.3570
2019-05-18T01:36:42.973Z,9.3872
2019-05-18T01:36:52.618Z,9.3872
2019-05-18T01:37:02.297Z,9.3973
2019-05-18T01:37:12.020Z,9.3872
2019-05-18T01:37:22.677Z,9.3872
2019-05-18T01:37:32.410Z,9.3872
2019-05-18T01:37:42.083Z,9.3973
2019-05-18T01:37:51.747Z,9.4174
2019-05-18T01:38:01.445Z,9.4174
2019-05-18T01:38:12.305Z,9.4174
2019-05-18T01:38:21.957Z,9.4174
2019-05-18T01:38:32.849Z,9.4174
2019-05-18T01:38:41.376Z,9.3973
2019-05-18T01:38:53.284Z,9.4174
2019-05-18T01:39:02.942Z,9.3973
2019-05-18T01:39:13.634Z,9.3973
2019-05-18T01:39:22.171Z,9.3973
2019-05-18T01:39:31.832Z,9.3872
2019-05-18T01:39:41.533Z,9.3872
2019-05-18T01:39:53.372Z,9.3872
2019-05-18T01:40:03.072Z,9.3973
2019-05-18T01:40:12.742Z,9.3872
2019-05-18T01:40:22.385Z,9.3872
2019-05-18T01:40:32.053Z,9.3872
2019-05-18T01:40:41.775Z,9.3872
2019-05-18T01:40:52.434Z,9.3771
2019-05-18T01:41:02.083Z,9.3872
2019-05-18T01:41:11.746Z,9.3872
2019-05-18T01:41:24.771Z,9.3973
2019-05-18T01:41:32.270Z,9.3872
2019-05-18T01:41:41.935Z,9.3872
2019-05-18T01:41:51.579Z,9.3872
2019-05-18T01:42:03.357Z,9.3872
2019-05-18T01:42:13.017Z,9.3771
2019-05-18T01:42:22.702Z,9.3872
2019-05-18T01:42:32.358Z,9.3771
2019-05-18T01:42:42.029Z,9.3872
2019-05-18T01:42:51.727Z,9.3771
2019-05-18T01:43:01.379Z,9.3872
2019-05-18T01:43:13.209Z,9.3872
2019-05-18T01:43:22.881Z,9.3771
2019-05-18T01:43:32.568Z,9.3872
2019-05-18T01:43:43.467Z,9.3872
2019-05-18T01:43:53.138Z,9.3771
2019-05-18T01:44:02.856Z,9.3771
2019-05-18T01:44:12.535Z,9.3771
2019-05-18T01:44:23.351Z,9.3771
2019-05-18T01:44:33.017Z,9.3771
2019-05-18T01:44:42.716Z,9.3570
2019-05-18T01:44:52.390Z,9.3469
2019-05-18T01:45:15.730Z,9.3570
2019-05-18T01:45:17.289Z,9.3469
2019-05-18T01:45:23.010Z,9.3570
2019-05-18T01:45:32.633Z,9.3469
2019-05-18T01:45:42.289Z,9.3469
2019-05-18T01:45:51.969Z,9.3469
2019-05-18T01:46:01.654Z,9.3469
2019-05-18T01:46:12.284Z,9.3268
2019-05-18T01:46:21.949Z,9.3469
2019-05-18T01:46:31.634Z,9.3268
2019-05-18T01:46:43.468Z,9.3268
2019-05-18T01:46:53.142Z,9.3268
2019-05-18T01:47:02.877Z,9.3469
2019-05-18T01:47:12.577Z,9.3167
2019-05-18T01:47:22.277Z,9.3167
2019-05-18T01:47:33.144Z,9.3268
2019-05-18T01:47:42.833Z,9.3268
2019-05-18T01:47:52.488Z,9.3167
2019-05-18T01:48:13.407Z,9.3167
2019-05-18T01:48:14.645Z,9.3167
2019-05-18T01:48:22.593Z,9.3167
2019-05-18T01:48:32.265Z,9.3167
2019-05-18T01:48:42.534Z,9.3066
2019-05-18T01:48:53.347Z,9.3167
2019-05-18T01:49:04.203Z,9.2865
2019-05-18T01:49:13.183Z,9.3066
2019-05-18T01:49:21.849Z,9.2865
2019-05-18T01:49:31.503Z,9.3066
2019-05-18T01:49:43.426Z,9.2764
2019-05-18T01:49:51.953Z,9.2865
2019-05-18T01:50:01.632Z,9.2865
2019-05-18T01:50:13.456Z,9.2865
2019-05-18T01:50:23.184Z,9.2764
2019-05-18T01:50:32.811Z,9.2764
2019-05-18T01:50:42.519Z,9.2563
2019-05-18T01:50:52.179Z,9.2563
2019-05-18T01:51:01.823Z,9.1757
2019-05-18T01:51:11.472Z,9.2563
2019-05-18T01:51:23.309Z,9.2361
2019-05-18T01:51:31.979Z,9.2361
2019-05-18T01:51:41.633Z,9.2361
2019-05-18T01:51:52.506Z,9.2361
2019-05-18T01:52:02.219Z,9.2261
2019-05-18T01:52:11.964Z,9.2261
2019-05-18T01:52:21.639Z,9.2261
2019-05-18T01:52:31.378Z,9.2059
2019-05-18T01:52:42.275Z,9.1959
2019-05-18T01:52:51.973Z,9.2261
2019-05-18T01:53:01.677Z,9.2059
2019-05-18T01:53:13.512Z,9.1959
2019-05-18T01:53:23.212Z,9.2059
2019-05-18T01:53:32.924Z,9.1959
2019-05-18T01:53:46.097Z,9.1959
2019-05-18T01:53:53.153Z,9.1757
2019-05-18T01:54:02.846Z,9.1656
2019-05-18T01:54:11.480Z,9.1959
2019-05-18T01:54:23.289Z,9.1757
2019-05-18T01:54:31.791Z,9.1757
2019-05-18T01:54:52.305Z,9.1656
2019-05-18T01:55:02.002Z,9.1656
2019-05-18T01:55:11.700Z,9.1656
2019-05-18T01:55:21.352Z,9.1455
2019-05-18T01:55:33.200Z,9.1455
2019-05-18T01:55:51.634Z,9.1656
2019-05-18T01:56:02.559Z,9.1354
2019-05-18T01:56:12.279Z,9.1354
2019-05-18T01:56:22.009Z,9.1354
2019-05-18T01:56:31.700Z,9.1354
2019-05-18T01:56:41.419Z,9.1254
2019-05-18T01:56:53.285Z,9.1254
2019-05-18T01:57:12.609Z,9.1455
2019-05-18T01:57:22.269Z,9.1354
2019-05-18T01:57:31.959Z,9.1254
2019-05-18T01:57:41.691Z,9.1354
2019-05-18T01:57:51.360Z,9.1354
2019-05-18T01:58:03.300Z,9.1254
2019-05-18T01:58:12.990Z,9.1354
2019-05-18T01:58:31.362Z,9.1354
2019-05-18T01:58:42.179Z,9.1254
2019-05-18T01:58:52.040Z,9.1254
2019-05-18T01:59:01.720Z,9.1254
2019-05-18T01:59:11.410Z,9.1354
2019-05-18T01:59:23.299Z,9.1354
2019-05-18T01:59:32.979Z,9.1254
2019-05-18T01:59:43.691Z,9.1354
2019-05-18T01:59:52.203Z,9.1455
2019-05-18T02:00:01.924Z,9.1354
2019-05-18T02:00:13.630Z,9.1354
2019-05-18T02:00:23.339Z,9.1254
2019-05-18T02:00:33.175Z,9.1354
2019-05-18T02:00:41.893Z,9.1254
2019-05-18T02:00:51.564Z,9.1455
2019-05-18T02:01:03.439Z,9.1354
2019-05-18T02:01:13.133Z,9.1354
2019-05-18T02:01:22.849Z,9.1254
2019-05-18T02:01:32.550Z,9.1254
2019-05-18T02:01:42.203Z,9.1254
2019-05-18T02:01:51.929Z,9.1254
2019-05-18T02:02:01.644Z,9.1254
2019-05-18T02:02:13.485Z,9.1052
2019-05-18T02:02:23.133Z,9.1052
2019-05-18T02:02:32.853Z,9.1052
2019-05-18T02:02:42.499Z,9.1052
2019-05-18T02:02:52.174Z,9.1254
2019-05-18T02:03:01.811Z,9.1254
2019-05-18T02:03:12.669Z,9.1254
2019-05-18T02:03:25.557Z,9.1254
2019-05-18T02:03:31.868Z,9.1254
2019-05-18T02:03:41.530Z,9.1354
2019-05-18T02:03:53.339Z,9.1354
2019-05-18T02:04:11.946Z,9.1354
2019-05-18T02:04:21.596Z,9.1455
2019-05-18T02:04:33.404Z,9.1656
2019-05-18T02:04:43.049Z,9.1656
2019-05-18T02:04:52.718Z,9.1455
2019-05-18T02:05:02.732Z,9.1656
2019-05-18T02:05:12.395Z,9.1656
2019-05-18T02:05:22.087Z,9.1757
2019-05-18T02:05:31.777Z,9.1757
2019-05-18T02:05:41.494Z,9.1959
2019-05-18T02:05:53.353Z,9.1757
2019-05-18T02:06:11.700Z,9.1959
2019-05-18T02:06:21.377Z,9.1959
2019-05-18T02:06:32.243Z,9.1959
2019-05-18T02:06:45.341Z,9.1959
2019-05-18T02:06:51.695Z,9.1959
2019-05-18T02:07:13.137Z,9.2059
2019-05-18T02:07:23.002Z,9.1959
2019-05-18T02:07:32.787Z,9.2059
2019-05-18T02:07:41.582Z,9.1757
2019-05-18T02:07:53.445Z,9.1959
2019-05-18T02:08:03.165Z,9.1959
2019-05-18T02:08:12.837Z,9.2059
2019-05-18T02:08:22.522Z,9.2059
2019-05-18T02:08:32.211Z,9.2059
2019-05-18T02:08:41.906Z,9.2059
2019-05-18T02:08:52.588Z,9.2261
2019-05-18T02:09:02.245Z,9.2059
2019-05-18T02:09:11.905Z,9.2059
2019-05-18T02:09:22.596Z,9.2261
2019-05-18T02:09:32.318Z,9.2361
2019-05-18T02:09:41.988Z,9.2261
2019-05-18T02:09:51.655Z,9.2261
2019-05-18T02:10:02.762Z,9.2261
2019-05-18T02:10:12.605Z,9.2261
2019-05-18T02:10:22.341Z,9.2361
2019-05-18T02:10:32.099Z,9.2361
2019-05-18T02:10:41.793Z,9.2361
2019-05-18T02:10:51.453Z,9.2361
2019-05-18T02:11:03.330Z,9.2563
2019-05-18T02:11:11.996Z,9.2563
2019-05-18T02:11:21.650Z,9.2764
2019-05-18T02:11:31.812Z,9.2764
2019-05-18T02:11:42.884Z,9.2865
2019-05-18T02:11:52.581Z,9.2865
2019-05-18T02:12:02.239Z,9.2865